createdAt,value
2018-05-27T00:01:51.029Z,4.40
2018-05-27T00:04:18.510Z,2.60
2018-05-27T00:06:46.007Z,3.90
2018-05-27T00:09:13.541Z,5.45
2018-05-27T00:11:41.058Z,2.78
2018-05-27T00:14:08.588Z,4.07
2018-05-27T00:16:36.092Z,3.40
2018-05-27T00:19:03.616Z,3.60
2018-05-27T00:21:31.108Z,5.15
2018-05-27T00:23:58.619Z,3.58
2018-05-27T00:26:26.169Z,4.65
2018-05-27T00:28:53.693Z,2.90
2018-05-27T00:31:21.249Z,2.97
2018-05-27T00:33:48.762Z,3.33
2018-05-27T00:36:16.268Z,5.75
2018-05-27T00:38:43.775Z,3.60
2018-05-27T00:41:11.291Z,4.62
2018-05-27T00:43:39.855Z,3.67
2018-05-27T00:46:07.360Z,3.92
2018-05-27T00:48:34.994Z,6.97
2018-05-27T00:51:02.514Z,5.32
2018-05-27T00:53:41.661Z,5.12
2018-05-27T00:56:09.223Z,4.65
2018-05-27T00:58:36.784Z,4.50
2018-05-27T01:01:04.334Z,6.43
2018-05-27T01:03:31.816Z,4.12
2018-05-27T01:05:59.327Z,6.28
2018-05-27T01:08:26.849Z,7.47
2018-05-27T01:10:55.402Z,6.03
2018-05-27T01:13:22.916Z,5.80
2018-05-27T01:15:50.473Z,4.53
2018-05-27T01:18:18.486Z,6.65
2018-05-27T01:20:46.004Z,7.20
2018-05-27T01:23:13.512Z,6.50
2018-05-27T01:25:41.024Z,6.82
2018-05-27T01:28:08.516Z,4.73
2018-05-27T01:30:36.032Z,8.77
2018-05-27T01:33:03.525Z,6.07
2018-05-27T01:35:31.129Z,8.67
2018-05-27T01:37:58.638Z,5.67
2018-05-27T01:40:26.145Z,6.37
2018-05-27T01:42:53.668Z,7.40
2018-05-27T01:45:21.176Z,7.57
2018-05-27T01:47:48.681Z,5.50
2018-05-27T01:50:16.169Z,8.13
2018-05-27T01:52:43.752Z,6.63
2018-05-27T01:55:11.228Z,8.40
2018-05-27T01:57:38.736Z,8.40
2018-05-27T02:00:06.266Z,7.20
2018-05-27T02:02:33.940Z,11.10
2018-05-27T02:05:01.425Z,8.33
2018-05-27T02:07:29.614Z,7.33
2018-05-27T02:09:57.117Z,10.53
2018-05-27T02:12:24.627Z,8.43
2018-05-27T02:14:52.141Z,8.07
2018-05-27T02:17:19.602Z,8.17
2018-05-27T02:19:47.076Z,7.67
2018-05-27T02:22:14.733Z,7.97
2018-05-27T02:24:42.205Z,8.37
2018-05-27T02:27:09.726Z,9.47
2018-05-27T02:29:38.356Z,11.90
2018-05-27T02:32:06.750Z,9.37
2018-05-27T02:34:34.252Z,8.13
2018-05-27T02:37:01.735Z,9.23
2018-05-27T02:39:31.153Z,10.87
2018-05-27T02:41:58.749Z,11.03
2018-05-27T02:44:26.260Z,10.53
2018-05-27T02:46:53.749Z,10.77
2018-05-27T02:49:21.280Z,12.80
2018-05-27T02:51:48.818Z,11.13
2018-05-27T02:54:16.321Z,11.70
2018-05-27T02:56:59.492Z,9.77
2018-05-27T02:59:27.089Z,12.03
2018-05-27T03:01:54.592Z,15.70
2018-05-27T03:04:22.073Z,12.00
2018-05-27T03:06:49.588Z,12.40
2018-05-27T03:09:17.216Z,12.30
2018-05-27T03:11:44.735Z,14.83
2018-05-27T03:14:12.239Z,14.57
2018-05-27T03:16:39.887Z,11.53
2018-05-27T03:19:07.393Z,12.57
2018-05-27T03:21:34.908Z,12.70
2018-05-27T03:24:02.415Z,13.97
2018-05-27T03:26:29.945Z,11.87
2018-05-27T03:28:57.451Z,15.23
2018-05-27T03:31:24.924Z,15.00
2018-05-27T03:33:52.429Z,16.13
2018-05-27T03:36:20.616Z,12.67
2018-05-27T03:38:48.117Z,17.20
2018-05-27T03:41:15.628Z,13.20
2018-05-27T03:43:43.262Z,15.30
2018-05-27T03:46:10.771Z,13.73
2018-05-27T03:48:38.668Z,13.27
2018-05-27T03:51:06.144Z,15.77
2018-05-27T03:53:33.759Z,11.90
2018-05-27T03:56:01.328Z,16.43
2018-05-27T03:58:29.786Z,13.27
2018-05-27T04:00:57.290Z,16.03
2018-05-27T04:03:24.767Z,15.67
2018-05-27T04:06:04.087Z,13.70
2018-05-27T04:08:39.212Z,11.67
2018-05-27T04:11:06.700Z,12.83
2018-05-27T04:13:34.193Z,14.80
2018-05-27T04:16:01.685Z,13.27
2018-05-27T04:18:29.293Z,12.83
2018-05-27T04:20:56.853Z,12.87
2018-05-27T04:23:24.382Z,13.70
2018-05-27T04:25:51.922Z,17.43
2018-05-27T04:28:19.545Z,14.10
2018-05-27T04:30:48.031Z,11.83
2018-05-27T04:33:15.531Z,12.80
2018-05-27T04:35:43.036Z,13.60
2018-05-27T04:38:10.600Z,13.83
2018-05-27T04:40:38.097Z,12.77
2018-05-27T04:43:05.593Z,13.63
2018-05-27T04:45:33.131Z,10.37
2018-05-27T04:48:00.661Z,13.10
2018-05-27T04:50:28.197Z,14.80
2018-05-27T04:52:55.700Z,11.67
2018-05-27T04:55:23.198Z,13.17
2018-05-27T04:57:50.674Z,11.47
2018-05-27T05:00:18.217Z,12.73
2018-05-27T05:02:45.710Z,11.97
2018-05-27T05:05:13.200Z,13.70
2018-05-27T05:07:40.706Z,12.13
2018-05-27T05:10:08.199Z,13.57
2018-05-27T05:12:35.725Z,11.33
2018-05-27T05:15:03.280Z,11.93
2018-05-27T05:20:04.700Z,11.20
2018-05-27T05:22:35.958Z,15.07
2018-05-27T05:25:03.476Z,13.20
2018-05-27T05:27:31.970Z,12.93
2018-05-27T05:30:01.067Z,15.20
2018-05-27T05:32:30.316Z,11.50
2018-05-27T05:34:57.805Z,13.77
2018-05-27T05:37:25.316Z,13.80
2018-05-27T05:39:52.877Z,11.57
2018-05-27T05:42:21.007Z,10.57
2018-05-27T05:44:49.132Z,12.50
2018-05-27T05:47:16.621Z,11.83
2018-05-27T05:49:44.148Z,12.07
2018-05-27T05:52:11.656Z,11.20
2018-05-27T05:54:39.319Z,10.80
2018-05-27T05:57:06.793Z,10.07
2018-05-27T05:59:34.268Z,11.17
2018-05-27T06:02:01.776Z,8.97
2018-05-27T06:04:29.401Z,8.97
2018-05-27T06:06:56.895Z,13.30
2018-05-27T06:09:24.375Z,10.23
2018-05-27T06:11:51.859Z,10.80
2018-05-27T06:14:19.396Z,8.97
2018-05-27T06:16:46.890Z,11.87
2018-05-27T06:19:14.424Z,9.57
2018-05-27T06:21:45.196Z,11.63
2018-05-27T06:24:12.684Z,9.87
2018-05-27T06:26:40.173Z,9.13
2018-05-27T06:29:07.653Z,10.40
2018-05-27T06:31:35.177Z,10.73
2018-05-27T06:34:02.660Z,8.90
2018-05-27T06:36:31.094Z,9.43
2018-05-27T06:38:59.593Z,13.67
2018-05-27T06:41:27.240Z,12.20
2018-05-27T06:43:55.833Z,8.73
2018-05-27T06:46:23.318Z,8.40
2018-05-27T06:48:50.838Z,6.60
2018-05-27T06:51:18.355Z,7.87
2018-05-27T06:53:45.838Z,8.23
2018-05-27T06:56:13.311Z,9.23
2018-05-27T06:58:40.824Z,7.07
2018-05-27T07:01:08.310Z,7.67
2018-05-27T07:03:35.825Z,7.57
2018-05-27T07:06:03.437Z,6.37
2018-05-27T07:08:31.717Z,6.10
2018-05-27T07:10:59.349Z,7.03
2018-05-27T07:13:26.860Z,9.00
2018-05-27T07:15:54.391Z,7.20
2018-05-27T07:18:21.886Z,5.60
2018-05-27T07:20:50.177Z,7.60
2018-05-27T07:23:17.656Z,5.97
2018-05-27T07:25:46.917Z,6.30
2018-05-27T07:28:14.558Z,6.73
2018-05-27T07:30:42.078Z,5.67
2018-05-27T07:33:09.700Z,5.77
2018-05-27T07:35:37.203Z,6.50
2018-05-27T07:38:04.688Z,5.90
2018-05-27T07:40:32.198Z,7.03
2018-05-27T07:42:59.738Z,6.37
2018-05-27T07:45:27.240Z,8.63
2018-05-27T07:47:54.720Z,8.40
2018-05-27T07:50:22.342Z,5.17
2018-05-27T07:52:49.808Z,6.03
2018-05-27T07:55:17.285Z,8.97
2018-05-27T07:57:44.810Z,8.70
2018-05-27T08:00:12.299Z,4.67
2018-05-27T08:02:39.881Z,6.07
2018-05-27T08:05:07.393Z,6.80
2018-05-27T08:07:34.860Z,7.70
2018-05-27T08:10:02.399Z,6.23
2018-05-27T08:12:29.926Z,4.67
2018-05-27T08:14:59.057Z,6.37
2018-05-27T08:17:26.578Z,6.70
2018-05-27T08:24:57.228Z,4.83
2018-05-27T08:27:26.630Z,4.90
2018-05-27T08:29:57.127Z,5.03
2018-05-27T08:32:28.284Z,3.87
2018-05-27T08:34:55.806Z,4.87
2018-05-27T08:37:23.304Z,4.50
2018-05-27T08:39:50.823Z,5.18
2018-05-27T08:42:18.314Z,5.63
2018-05-27T08:44:45.817Z,4.50
2018-05-27T08:47:13.340Z,5.68
2018-05-27T08:49:40.819Z,5.17
2018-05-27T08:52:08.668Z,4.95
2018-05-27T08:54:50.527Z,3.73
2018-05-27T08:57:18.063Z,4.17
2018-05-27T08:59:45.701Z,3.90
2018-05-27T09:02:13.212Z,4.17
2018-05-27T09:04:40.728Z,4.03
2018-05-27T09:07:08.208Z,4.03
2018-05-27T09:09:36.391Z,4.43
2018-05-27T09:12:04.013Z,3.22
2018-05-27T09:14:31.583Z,3.78
2018-05-27T09:16:59.113Z,3.62
2018-05-27T09:19:26.582Z,3.60
2018-05-27T09:21:54.081Z,2.65
2018-05-27T09:24:21.650Z,3.62
2018-05-27T09:26:49.180Z,4.30
2018-05-27T09:29:16.692Z,4.75
2018-05-27T09:31:44.180Z,3.62
2018-05-27T09:34:11.788Z,3.47
2018-05-27T09:36:39.280Z,5.90
2018-05-27T09:39:06.820Z,3.85
2018-05-27T09:41:34.356Z,3.58
2018-05-27T09:44:01.830Z,2.28
2018-05-27T09:46:30.299Z,2.55
2018-05-27T09:48:57.938Z,2.83
2018-05-27T09:51:25.467Z,4.40
2018-05-27T09:53:54.598Z,2.37
2018-05-27T09:56:22.083Z,2.87
2018-05-27T09:58:49.602Z,2.80
2018-05-27T10:01:17.068Z,4.10
2018-05-27T10:03:44.585Z,6.00
2018-05-27T10:06:12.096Z,3.58
2018-05-27T10:08:39.587Z,3.70
2018-05-27T10:11:07.100Z,4.78
2018-05-27T10:13:34.790Z,3.17
2018-05-27T10:16:02.345Z,2.83
2018-05-27T10:18:29.880Z,2.50
2018-05-27T10:20:57.365Z,3.20
2018-05-27T10:23:25.027Z,2.92
2018-05-27T10:25:52.551Z,2.53
2018-05-27T10:28:20.033Z,2.00
2018-05-27T10:30:47.558Z,2.95
2018-05-27T10:33:15.147Z,3.87
2018-05-27T10:35:42.638Z,2.83
2018-05-27T10:38:10.133Z,3.25
2018-05-27T10:40:38.471Z,2.28
2018-05-27T10:43:07.078Z,4.47
2018-05-27T10:45:35.474Z,3.33
2018-05-27T10:48:03.509Z,3.55
2018-05-27T10:50:31.022Z,2.42
2018-05-27T10:53:14.355Z,5.60
2018-05-27T10:55:41.973Z,3.05
2018-05-27T10:58:09.473Z,2.62
2018-05-27T11:00:36.989Z,2.67
2018-05-27T11:03:04.589Z,31.48
2018-05-27T11:05:32.934Z,3.08
2018-05-27T11:08:00.450Z,2.90
2018-05-27T11:10:27.948Z,2.17
2018-05-27T11:12:55.695Z,2.20
2018-05-27T11:15:23.193Z,2.75
2018-05-27T11:17:50.657Z,2.17
2018-05-27T11:20:18.151Z,3.12
2018-05-27T11:22:45.630Z,1.75
2018-05-27T11:25:13.164Z,1.85
2018-05-27T11:27:40.641Z,2.33
2018-05-27T11:30:08.154Z,2.00
2018-05-27T11:32:35.628Z,1.33
2018-05-27T11:35:03.174Z,1.80
2018-05-27T11:37:30.687Z,2.17
2018-05-27T11:39:58.178Z,1.85
2018-05-27T11:42:25.762Z,1.33
2018-05-27T11:44:53.284Z,1.60
2018-05-27T11:47:20.780Z,1.40
2018-05-27T11:57:11.837Z,2.25
2018-05-27T11:59:39.404Z,1.60
2018-05-27T12:02:07.021Z,1.75
2018-05-27T12:04:34.464Z,1.98
2018-05-27T12:07:01.964Z,2.05
2018-05-27T12:09:29.578Z,1.62
2018-05-27T12:11:57.025Z,1.62
2018-05-27T12:14:24.519Z,1.58
2018-05-27T12:16:52.393Z,1.45
2018-05-27T12:19:19.868Z,1.50
2018-05-27T12:21:47.372Z,1.37
2018-05-27T12:24:14.947Z,1.42
2018-05-27T12:26:42.497Z,1.20
2018-05-27T12:29:09.996Z,1.95
2018-05-27T12:31:37.476Z,1.40
2018-05-27T12:34:04.980Z,1.80
2018-05-27T12:36:32.567Z,1.58
2018-05-27T12:39:00.043Z,2.20
2018-05-27T12:41:27.551Z,1.52
2018-05-27T12:43:55.079Z,1.52
2018-05-27T12:46:22.665Z,1.62
2018-05-27T12:48:50.199Z,1.80
2018-05-27T12:51:20.396Z,2.53
2018-05-27T12:53:47.907Z,1.98
2018-05-27T12:56:15.411Z,1.77
2018-05-27T12:58:42.987Z,2.62
2018-05-27T13:01:10.469Z,1.77
2018-05-27T13:03:37.940Z,1.92
2018-05-27T13:06:05.475Z,1.48
2018-05-27T13:08:32.951Z,1.40
2018-05-27T13:11:00.560Z,1.40
2018-05-27T13:13:28.055Z,2.22
2018-05-27T13:15:55.552Z,2.00
2018-05-27T13:18:23.150Z,1.65
2018-05-27T13:20:50.629Z,2.28
2018-05-27T13:23:18.160Z,2.30
2018-05-27T13:25:45.630Z,2.08
2018-05-27T13:28:14.771Z,1.60
2018-05-27T13:30:42.238Z,2.27
2018-05-27T13:33:10.483Z,2.35
2018-05-27T13:35:40.091Z,1.35
2018-05-27T13:38:08.333Z,2.00
2018-05-27T13:40:36.207Z,2.55
2018-05-27T13:43:03.704Z,2.22
2018-05-27T13:45:33.146Z,2.00
2018-05-27T13:48:00.647Z,2.12
2018-05-27T13:50:35.464Z,1.70
2018-05-27T13:53:02.984Z,2.10
2018-05-27T13:55:30.692Z,2.97
2018-05-27T13:57:58.141Z,1.52
2018-05-27T14:02:59.416Z,1.60
2018-05-27T14:05:26.913Z,1.85
2018-05-27T14:07:54.406Z,3.37
2018-05-27T14:10:22.055Z,1.40
2018-05-27T14:12:49.726Z,2.03
2018-05-27T14:15:17.301Z,1.62
2018-05-27T14:17:44.859Z,2.47
2018-05-27T14:40:38.548Z,2.72
2018-05-27T14:44:41.483Z,2.60
2018-05-27T14:47:48.874Z,4.00
2018-05-27T14:53:30.189Z,2.95
2018-05-27T14:55:57.772Z,5.07
2018-05-27T14:58:28.766Z,3.35
2018-05-27T15:01:20.034Z,4.65
2018-05-27T15:06:48.677Z,3.10
2018-05-27T15:12:00.053Z,3.60
2018-05-27T15:14:27.589Z,2.92
2018-05-27T15:16:55.446Z,3.03
2018-05-27T15:19:23.789Z,2.12
2018-05-27T15:21:51.316Z,2.80
2018-05-27T15:24:19.218Z,2.35
2018-05-27T15:26:47.525Z,4.75
2018-05-27T15:29:14.986Z,2.92
2018-05-27T15:31:42.644Z,3.60
2018-05-27T15:34:10.150Z,3.17
2018-05-27T15:36:37.663Z,4.53
2018-05-27T15:39:05.955Z,3.72
2018-05-27T15:41:33.502Z,2.25
2018-05-27T15:44:10.635Z,3.67
2018-05-27T15:46:38.284Z,3.08
2018-05-27T15:49:05.768Z,3.70
2018-05-27T15:51:39.560Z,3.20
2018-05-27T15:54:10.662Z,3.62
2018-05-27T15:56:40.940Z,2.67
2018-05-27T15:59:13.799Z,2.22
2018-05-27T16:01:43.226Z,2.85
2018-05-27T16:04:11.995Z,2.50
2018-05-27T16:06:41.328Z,3.35
2018-05-27T16:09:11.037Z,4.57
2018-05-27T16:11:39.878Z,2.97
2018-05-27T16:14:18.947Z,4.93
2018-05-27T16:16:48.034Z,3.70
2018-05-27T16:19:23.659Z,3.12
2018-05-27T16:26:09.132Z,2.55
2018-05-27T16:28:36.617Z,2.80
2018-05-27T16:31:04.127Z,5.62
2018-05-27T16:33:31.655Z,3.55
2018-05-27T16:35:59.154Z,3.70
2018-05-27T16:38:28.543Z,5.12
2018-05-27T16:40:57.918Z,2.72
2018-05-27T16:43:25.972Z,2.60
2018-05-27T16:45:53.459Z,3.70
2018-05-27T16:48:20.977Z,3.10
2018-05-27T16:53:35.291Z,4.68
2018-05-27T16:56:02.825Z,3.83
2018-05-27T16:58:46.104Z,2.70
2018-05-27T17:01:14.474Z,3.45
2018-05-27T17:03:46.170Z,3.45
2018-05-27T17:06:13.715Z,3.85
2018-05-27T17:08:41.442Z,2.97
2018-05-27T17:11:12.894Z,2.87
2018-05-27T17:13:41.109Z,3.28
2018-05-27T17:16:10.849Z,2.97
2018-05-27T17:18:38.401Z,2.90
2018-05-27T17:23:39.786Z,3.83
2018-05-27T17:26:07.302Z,3.30
2018-05-27T17:28:39.030Z,3.40
2018-05-27T17:31:06.518Z,3.30
2018-05-27T17:33:34.000Z,4.05
2018-05-27T17:36:01.687Z,3.70
2018-05-27T17:38:29.208Z,3.53
2018-05-27T17:40:56.718Z,3.53
2018-05-27T17:43:24.200Z,4.30
2018-05-27T17:45:51.748Z,3.45
2018-05-27T17:48:19.301Z,3.58
2018-05-27T17:50:46.804Z,5.57
2018-05-27T17:53:14.311Z,3.15
2018-05-27T17:55:41.789Z,4.50
2018-05-27T17:58:09.386Z,3.20
2018-05-27T18:00:36.885Z,3.70
2018-05-27T18:03:04.419Z,3.08
2018-05-27T18:05:31.908Z,5.00
2018-05-27T18:07:59.377Z,3.12
2018-05-27T18:10:26.889Z,3.47
2018-05-27T18:12:54.385Z,3.17
2018-05-27T18:15:21.892Z,4.12
2018-05-27T18:17:49.448Z,3.00
2018-05-27T18:20:16.980Z,3.55
2018-05-27T18:22:44.525Z,5.35
2018-05-27T18:25:12.035Z,3.15
2018-05-27T18:27:39.541Z,2.85
2018-05-27T18:30:07.079Z,2.40
2018-05-27T18:32:34.572Z,3.03
2018-05-27T18:35:02.065Z,4.37
2018-05-27T18:37:29.982Z,3.22
2018-05-27T18:39:57.468Z,2.95
2018-05-27T18:42:24.977Z,5.28
2018-05-27T18:44:52.498Z,3.22
2018-05-27T18:47:20.041Z,3.37
2018-05-27T18:49:47.579Z,3.60
2018-05-27T18:52:15.130Z,4.05
2018-05-27T18:54:42.660Z,3.30
2018-05-27T18:57:10.198Z,3.30
2018-05-27T18:59:37.767Z,2.60
2018-05-27T19:02:05.329Z,3.35
2018-05-27T19:04:32.839Z,3.08
2018-05-27T19:07:00.419Z,3.50
2018-05-27T19:09:27.927Z,2.92
2018-05-27T19:11:55.472Z,5.05
2018-05-27T19:14:23.601Z,7.00
2018-05-27T19:16:51.149Z,3.12
2018-05-27T19:19:18.658Z,4.10
2018-05-27T19:21:46.160Z,4.07
2018-05-27T19:24:13.803Z,3.47
2018-05-27T19:26:41.351Z,3.28
2018-05-27T19:29:09.029Z,3.60
2018-05-27T19:31:36.532Z,3.05
2018-05-27T19:34:04.212Z,3.30
2018-05-27T19:36:31.738Z,3.42
2018-05-27T19:38:59.425Z,3.58
2018-05-27T19:41:27.793Z,3.05
2018-05-27T19:43:55.333Z,3.65
2018-05-27T19:46:22.847Z,3.62
2018-05-27T19:48:50.439Z,3.55
2018-05-27T19:51:18.707Z,3.03
2018-05-27T19:53:48.224Z,4.20
2018-05-27T20:25:47.196Z,3.40
2018-05-27T20:28:14.714Z,4.53
2018-05-27T20:30:42.243Z,3.95
2018-05-27T20:33:09.854Z,3.40
2018-05-27T20:35:37.409Z,5.03
2018-05-27T20:38:04.936Z,4.72
2018-05-27T20:40:32.442Z,3.15
2018-05-27T20:43:00.055Z,3.97
2018-05-27T20:45:27.563Z,3.90
2018-05-27T20:47:55.117Z,3.25
2018-05-27T20:50:22.639Z,3.17
2018-05-27T20:52:50.140Z,3.05
2018-05-27T20:55:18.013Z,3.40
2018-05-27T20:57:45.514Z,5.07
2018-05-27T21:00:13.008Z,3.40
2018-05-27T21:02:40.857Z,2.90
2018-05-27T21:05:08.372Z,2.67
2018-05-27T21:07:35.897Z,3.50
2018-05-27T21:10:03.396Z,3.17
2018-05-27T21:12:30.972Z,2.95
2018-05-27T21:14:58.788Z,2.45
2018-05-27T21:17:26.281Z,2.92
2018-05-27T21:19:53.947Z,3.08
2018-05-27T21:22:21.857Z,2.72
2018-05-27T21:24:49.372Z,4.85
2018-05-27T21:27:16.912Z,2.33
2018-05-27T21:29:44.416Z,2.45
2018-05-27T21:32:12.118Z,2.22
2018-05-27T21:34:39.636Z,2.42
2018-05-27T21:37:07.210Z,2.87
2018-05-27T21:39:34.706Z,2.70
2018-05-27T21:42:02.355Z,4.15
2018-05-27T21:44:29.861Z,2.62
2018-05-27T21:46:57.376Z,3.33
2018-05-27T21:49:24.935Z,3.53
2018-05-27T21:51:52.475Z,2.25
2018-05-27T21:54:20.032Z,4.10
2018-05-27T21:56:47.574Z,2.83
2018-05-27T21:59:15.179Z,2.83
2018-05-27T22:01:42.705Z,2.33
2018-05-27T22:04:10.237Z,2.62
2018-05-27T22:06:38.110Z,2.12
2018-05-27T22:09:05.656Z,1.98
2018-05-27T22:11:33.285Z,3.12
2018-05-27T22:14:00.831Z,3.08
2018-05-27T22:16:28.800Z,2.55
2018-05-27T22:18:56.310Z,1.90
2018-05-27T22:21:23.864Z,1.70
2018-05-27T22:23:51.427Z,1.95
2018-05-27T22:26:18.917Z,1.98
2018-05-27T22:28:46.393Z,1.40
2018-05-27T22:31:13.907Z,3.08
2018-05-27T22:33:41.401Z,1.75
2018-05-27T22:36:08.928Z,2.00
2018-05-27T22:38:36.476Z,2.08
2018-05-27T22:41:04.020Z,2.10
2018-05-27T22:43:31.553Z,2.95
2018-05-27T22:45:59.092Z,2.33
2018-05-27T22:48:26.645Z,2.55
2018-05-27T22:50:54.208Z,1.92
2018-05-27T22:53:21.753Z,1.70
2018-05-27T22:55:49.256Z,2.10
2018-05-27T22:58:16.878Z,2.30
2018-05-27T23:00:44.398Z,1.67
2018-05-27T23:03:11.992Z,1.73
2018-05-27T23:05:39.529Z,2.10
2018-05-27T23:08:07.039Z,2.30
2018-05-27T23:10:34.555Z,2.03
2018-05-27T23:13:02.045Z,1.90
2018-05-27T23:15:29.569Z,2.12
2018-05-27T23:17:57.130Z,2.20
2018-05-27T23:20:24.759Z,2.33
2018-05-27T23:22:52.282Z,2.17
2018-05-27T23:25:19.824Z,2.03
2018-05-27T23:27:47.521Z,1.98
2018-05-27T23:30:15.053Z,1.85
2018-05-27T23:32:42.594Z,2.33
2018-05-27T23:35:10.150Z,2.12
2018-05-27T23:37:37.742Z,2.08
2018-05-27T23:40:05.244Z,2.00
2018-05-27T23:42:32.798Z,2.58
2018-05-27T23:45:00.302Z,2.25
2018-05-27T23:47:27.863Z,2.78
2018-05-27T23:49:55.372Z,3.40
2018-05-27T23:52:23.083Z,3.62
2018-05-27T23:54:50.591Z,2.90
2018-05-27T23:57:18.067Z,3.17
2018-05-27T23:59:45.602Z,2.50
